sensor_id;sensor_type;location;lat;lon;timestamp;pressure;altitude;pressure_sealevel;temperature;humidity
15405;BME280;7801;48.124;11.590;2023-06-26T00:01:18;95502.91;;;21.07;53.95
15405;BME280;7801;48.124;11.590;2023-06-26T00:03:50;95513.13;;;20.98;54.41
15405;BME280;7801;48.124;11.590;2023-06-26T00:06:17;95503.75;;;21.11;54.50
15405;BME280;7801;48.124;11.590;2023-06-26T00:08:42;95504.47;;;21.08;54.41
15405;BME280;7801;48.124;11.590;2023-06-26T00:11:09;95498.78;;;21.13;54.39
15405;BME280;7801;48.124;11.590;2023-06-26T00:13:35;95504.75;;;21.03;54.31
15405;BME280;7801;48.124;11.590;2023-06-26T00:16:01;95499.78;;;21.05;54.14
15405;BME280;7801;48.124;11.590;2023-06-26T00:18:29;95506.22;;;21.01;54.57
15405;BME280;7801;48.124;11.590;2023-06-26T00:20:54;95502.75;;;21.00;55.00
15405;BME280;7801;48.124;11.590;2023-06-26T00:23:21;95504.31;;;21.01;54.82
15405;BME280;7801;48.124;11.590;2023-06-26T00:25:49;95506.19;;;20.97;54.73
15405;BME280;7801;48.124;11.590;2023-06-26T00:28:18;95511.69;;;21.04;55.12
15405;BME280;7801;48.124;11.590;2023-06-26T00:30:45;95512.91;;;20.87;54.74
15405;BME280;7801;48.124;11.590;2023-06-26T00:33:11;95514.41;;;21.04;54.28
15405;BME280;7801;48.124;11.590;2023-06-26T00:35:38;95518.53;;;20.98;53.86
15405;BME280;7801;48.124;11.590;2023-06-26T00:38:04;95506.09;;;20.74;53.80
15405;BME280;7801;48.124;11.590;2023-06-26T00:40:31;95512.47;;;20.66;54.32
15405;BME280;7801;48.124;11.590;2023-06-26T00:42:56;95504.63;;;20.61;54.03
15405;BME280;7801;48.124;11.590;2023-06-26T00:45:22;95518.47;;;20.59;53.67
15405;BME280;7801;48.124;11.590;2023-06-26T00:47:48;95509.41;;;20.68;53.38
15405;BME280;7801;48.124;11.590;2023-06-26T00:50:16;95505.13;;;20.47;53.86
15405;BME280;7801;48.124;11.590;2023-06-26T00:52:44;95503.16;;;20.64;53.55
15405;BME280;7801;48.124;11.590;2023-06-26T00:55:12;95499.31;;;20.65;53.50
15405;BME280;7801;48.124;11.590;2023-06-26T00:57:39;95512.25;;;20.55;53.91
15405;BME280;7801;48.124;11.590;2023-06-26T01:00:11;95509.19;;;20.57;53.92
15405;BME280;7801;48.124;11.590;2023-06-26T01:02:41;95506.72;;;20.68;53.82
15405;BME280;7801;48.124;11.590;2023-06-26T01:05:06;95514.63;;;20.61;53.77
15405;BME280;7801;48.124;11.590;2023-06-26T01:07:39;95507.47;;;20.49;54.50
15405;BME280;7801;48.124;11.590;2023-06-26T01:10:06;95504.28;;;20.63;54.02
15405;BME280;7801;48.124;11.590;2023-06-26T01:12:33;95509.91;;;20.38;53.92
15405;BME280;7801;48.124;11.590;2023-06-26T01:15:01;95507.03;;;20.47;54.97
15405;BME280;7801;48.124;11.590;2023-06-26T01:17:27;95501.38;;;20.52;54.43
15405;BME280;7801;48.124;11.590;2023-06-26T01:20:01;95499.19;;;20.57;54.74
15405;BME280;7801;48.124;11.590;2023-06-26T01:25:45;95500.34;;;20.41;53.78
15405;BME280;7801;48.124;11.590;2023-06-26T01:28:18;95500.69;;;20.39;54.14
15405;BME280;7801;48.124;11.590;2023-06-26T01:30:46;95500.53;;;20.32;54.01
15405;BME280;7801;48.124;11.590;2023-06-26T01:33:14;95497.81;;;20.32;54.35
15405;BME280;7801;48.124;11.590;2023-06-26T01:35:44;95499.13;;;20.38;54.99
15405;BME280;7801;48.124;11.590;2023-06-26T01:38:16;95507.03;;;20.31;54.35
15405;BME280;7801;48.124;11.590;2023-06-26T01:40:58;95497.13;;;20.35;54.82
15405;BME280;7801;48.124;11.590;2023-06-26T01:46:39;95494.59;;;20.42;54.80
15405;BME280;7801;48.124;11.590;2023-06-26T01:49:29;95493.91;;;20.30;54.29
15405;BME280;7801;48.124;11.590;2023-06-26T01:55:36;95492.44;;;20.48;54.91
15405;BME280;7801;48.124;11.590;2023-06-26T01:58:13;95483.72;;;20.54;54.55
15405;BME280;7801;48.124;11.590;2023-06-26T02:00:42;95488.09;;;20.43;55.06
15405;BME280;7801;48.124;11.590;2023-06-26T02:03:10;95485.66;;;20.38;54.37
15405;BME280;7801;48.124;11.590;2023-06-26T02:05:38;95482.53;;;20.36;54.93
15405;BME280;7801;48.124;11.590;2023-06-26T02:08:14;95487.66;;;20.25;54.72
15405;BME280;7801;48.124;11.590;2023-06-26T02:10:59;95497.91;;;20.36;55.80
15405;BME280;7801;48.124;11.590;2023-06-26T02:13:26;95497.66;;;20.41;55.07
15405;BME280;7801;48.124;11.590;2023-06-26T02:15:55;95487.72;;;20.45;55.53
15405;BME280;7801;48.124;11.590;2023-06-26T02:18:22;95497.31;;;20.42;54.92
15405;BME280;7801;48.124;11.590;2023-06-26T02:20:52;95496.44;;;20.38;55.08
15405;BME280;7801;48.124;11.590;2023-06-26T02:23:17;95499.50;;;20.37;55.50
15405;BME280;7801;48.124;11.590;2023-06-26T02:25:43;95497.56;;;20.37;55.65
15405;BME280;7801;48.124;11.590;2023-06-26T02:28:09;95486.44;;;20.23;55.91
15405;BME280;7801;48.124;11.590;2023-06-26T02:30:36;95496.19;;;20.28;55.74
15405;BME280;7801;48.124;11.590;2023-06-26T02:33:02;95495.66;;;20.22;55.59
15405;BME280;7801;48.124;11.590;2023-06-26T02:35:32;95495.22;;;20.20;55.86
15405;BME280;7801;48.124;11.590;2023-06-26T02:38:01;95502.03;;;20.14;55.89
15405;BME280;7801;48.124;11.590;2023-06-26T02:40:27;95503.31;;;20.20;56.56
15405;BME280;7801;48.124;11.590;2023-06-26T02:42:53;95500.34;;;20.25;56.65
15405;BME280;7801;48.124;11.590;2023-06-26T02:45:19;95497.56;;;20.21;56.47
15405;BME280;7801;48.124;11.590;2023-06-26T02:47:45;95498.19;;;19.99;57.13
15405;BME280;7801;48.124;11.590;2023-06-26T02:50:13;95498.47;;;20.10;57.01
15405;BME280;7801;48.124;11.590;2023-06-26T02:52:40;95495.87;;;20.13;56.64
15405;BME280;7801;48.124;11.590;2023-06-26T02:55:08;95491.75;;;20.19;56.73
15405;BME280;7801;48.124;11.590;2023-06-26T02:57:35;95495.78;;;20.10;56.53
15405;BME280;7801;48.124;11.590;2023-06-26T03:00:01;95498.06;;;19.92;56.92
15405;BME280;7801;48.124;11.590;2023-06-26T03:02:28;95497.47;;;20.18;58.65
15405;BME280;7801;48.124;11.590;2023-06-26T03:04:54;95499.06;;;20.19;56.80
15405;BME280;7801;48.124;11.590;2023-06-26T03:07:20;95493.59;;;20.15;56.76
15405;BME280;7801;48.124;11.590;2023-06-26T03:09:46;95499.59;;;20.09;56.53
15405;BME280;7801;48.124;11.590;2023-06-26T03:12:12;95499.84;;;20.04;56.85
15405;BME280;7801;48.124;11.590;2023-06-26T03:14:38;95501.75;;;20.19;57.07
15405;BME280;7801;48.124;11.590;2023-06-26T03:17:05;95496.63;;;20.30;57.50
15405;BME280;7801;48.124;11.590;2023-06-26T03:19:33;95486.19;;;20.28;57.82
15405;BME280;7801;48.124;11.590;2023-06-26T03:22:01;95488.00;;;20.24;57.67
15405;BME280;7801;48.124;11.590;2023-06-26T03:24:29;95486.34;;;20.35;58.38
15405;BME280;7801;48.124;11.590;2023-06-26T03:26:57;95495.78;;;20.10;56.62
15405;BME280;7801;48.124;11.590;2023-06-26T03:29:23;95492.81;;;20.15;56.70
15405;BME280;7801;48.124;11.590;2023-06-26T03:31:50;95493.94;;;20.14;58.12
15405;BME280;7801;48.124;11.590;2023-06-26T03:34:17;95484.03;;;20.02;56.88
15405;BME280;7801;48.124;11.590;2023-06-26T03:36:43;95482.38;;;20.13;56.93
15405;BME280;7801;48.124;11.590;2023-06-26T03:39:10;95489.87;;;20.04;56.84
15405;BME280;7801;48.124;11.590;2023-06-26T03:41:38;95489.63;;;19.94;57.07
15405;BME280;7801;48.124;11.590;2023-06-26T03:44:07;95502.72;;;19.79;57.58
15405;BME280;7801;48.124;11.590;2023-06-26T03:46:34;95498.81;;;19.77;57.52
15405;BME280;7801;48.124;11.590;2023-06-26T03:49:00;95495.34;;;19.76;57.92
15405;BME280;7801;48.124;11.590;2023-06-26T03:51:27;95495.97;;;19.85;57.58
15405;BME280;7801;48.124;11.590;2023-06-26T03:53:54;95493.69;;;19.87;58.10
15405;BME280;7801;48.124;11.590;2023-06-26T03:56:21;95496.13;;;19.77;57.65
15405;BME280;7801;48.124;11.590;2023-06-26T03:58:47;95493.50;;;19.96;57.97
15405;BME280;7801;48.124;11.590;2023-06-26T04:01:14;95497.09;;;19.84;57.51
15405;BME280;7801;48.124;11.590;2023-06-26T04:03:40;95487.28;;;19.92;58.30
15405;BME280;7801;48.124;11.590;2023-06-26T04:06:07;95496.28;;;20.00;57.57
15405;BME280;7801;48.124;11.590;2023-06-26T04:08:33;95494.84;;;19.86;57.70
15405;BME280;7801;48.124;11.590;2023-06-26T04:11:03;95491.03;;;19.72;58.16
15405;BME280;7801;48.124;11.590;2023-06-26T04:13:29;95499.09;;;19.87;57.76
15405;BME280;7801;48.124;11.590;2023-06-26T04:15:56;95493.34;;;19.89;58.59
15405;BME280;7801;48.124;11.590;2023-06-26T04:18:22;95500.75;;;19.92;57.80
15405;BME280;7801;48.124;11.590;2023-06-26T04:21:24;95494.81;;;20.02;57.72
15405;BME280;7801;48.124;11.590;2023-06-26T04:23:53;95488.75;;;19.89;57.66
15405;BME280;7801;48.124;11.590;2023-06-26T04:26:19;95493.78;;;19.91;58.71
15405;BME280;7801;48.124;11.590;2023-06-26T04:28:46;95496.19;;;19.96;58.44
15405;BME280;7801;48.124;11.590;2023-06-26T04:31:12;95496.41;;;19.87;57.90
15405;BME280;7801;48.124;11.590;2023-06-26T04:33:39;95497.72;;;19.94;58.20
15405;BME280;7801;48.124;11.590;2023-06-26T04:36:25;95502.28;;;19.77;58.26
15405;BME280;7801;48.124;11.590;2023-06-26T04:38:55;95502.47;;;19.84;58.64
15405;BME280;7801;48.124;11.590;2023-06-26T04:41:22;95503.25;;;19.85;58.26
15405;BME280;7801;48.124;11.590;2023-06-26T04:43:48;95502.47;;;19.84;58.33
15405;BME280;7801;48.124;11.590;2023-06-26T04:46:14;95501.84;;;19.75;58.39
15405;BME280;7801;48.124;11.590;2023-06-26T04:48:40;95497.06;;;20.00;58.55
15405;BME280;7801;48.124;11.590;2023-06-26T04:51:15;95505.69;;;20.06;58.79
15405;BME280;7801;48.124;11.590;2023-06-26T04:53:41;95496.56;;;20.10;58.42
15405;BME280;7801;48.124;11.590;2023-06-26T04:56:07;95499.59;;;20.09;58.15
15405;BME280;7801;48.124;11.590;2023-06-26T04:58:34;95499.28;;;19.95;58.42
15405;BME280;7801;48.124;11.590;2023-06-26T05:01:02;95501.09;;;19.90;58.33
15405;BME280;7801;48.124;11.590;2023-06-26T05:03:38;95499.28;;;19.95;58.44
15405;BME280;7801;48.124;11.590;2023-06-26T05:06:03;95496.03;;;20.05;58.42
15405;BME280;7801;48.124;11.590;2023-06-26T05:08:30;95499.84;;;20.04;58.28
15405;BME280;7801;48.124;11.590;2023-06-26T05:11:00;95503.75;;;20.22;58.73
15405;BME280;7801;48.124;11.590;2023-06-26T05:13:46;95500.28;;;20.06;58.31
15405;BME280;7801;48.124;11.590;2023-06-26T05:16:14;95499.22;;;20.26;58.33
15405;BME280;7801;48.124;11.590;2023-06-26T05:18:40;95497.78;;;20.13;59.08
15405;BME280;7801;48.124;11.590;2023-06-26T05:21:07;95502.88;;;20.18;58.74
15405;BME280;7801;48.124;11.590;2023-06-26T05:23:34;95504.44;;;20.19;58.82
15405;BME280;7801;48.124;11.590;2023-06-26T05:26:03;95496.34;;;20.35;59.02
15405;BME280;7801;48.124;11.590;2023-06-26T05:28:30;95507.47;;;20.33;59.34
15405;BME280;7801;48.124;11.590;2023-06-26T05:31:17;95500.09;;;20.30;58.46
15405;BME280;7801;48.124;11.590;2023-06-26T05:33:49;95504.59;;;20.26;60.28
15405;BME280;7801;48.124;11.590;2023-06-26T05:36:36;95496.53;;;20.26;60.41
15405;BME280;7801;48.124;11.590;2023-06-26T05:39:04;95494.69;;;20.30;60.54
15405;BME280;7801;48.124;11.590;2023-06-26T05:41:30;95498.53;;;20.29;60.70
15405;BME280;7801;48.124;11.590;2023-06-26T05:43:58;95499.50;;;20.37;60.76
15405;BME280;7801;48.124;11.590;2023-06-26T05:46:25;95500.44;;;20.44;60.55
15405;BME280;7801;48.124;11.590;2023-06-26T05:48:52;95499.66;;;20.44;60.35
15405;BME280;7801;48.124;11.590;2023-06-26T05:51:18;95501.03;;;20.53;60.85
15405;BME280;7801;48.124;11.590;2023-06-26T05:53:46;95503.03;;;20.56;61.51
15405;BME280;7801;48.124;11.590;2023-06-26T05:56:17;95504.09;;;20.71;59.99
15405;BME280;7801;48.124;11.590;2023-06-26T05:58:43;95500.25;;;20.72;59.05
15405;BME280;7801;48.124;11.590;2023-06-26T06:01:10;95506.16;;;20.78;58.56
15405;BME280;7801;48.124;11.590;2023-06-26T06:03:36;95513.69;;;20.88;58.63
15405;BME280;7801;48.124;11.590;2023-06-26T06:06:05;95506.88;;;20.94;59.04
15405;BME280;7801;48.124;11.590;2023-06-26T06:08:30;95507.00;;;21.01;59.79
15405;BME280;7801;48.124;11.590;2023-06-26T06:10:57;95503.59;;;21.04;59.04
15405;BME280;7801;48.124;11.590;2023-06-26T06:13:24;95500.34;;;21.14;59.24
15405;BME280;7801;48.124;11.590;2023-06-26T06:15:50;95495.87;;;21.22;58.80
15405;BME280;7801;48.124;11.590;2023-06-26T06:18:17;95497.59;;;21.30;58.01
15405;BME280;7801;48.124;11.590;2023-06-26T06:20:44;95493.75;;;21.31;58.46
15405;BME280;7801;48.124;11.590;2023-06-26T06:23:13;95490.44;;;21.41;57.84
15405;BME280;7801;48.124;11.590;2023-06-26T06:25:43;95496.19;;;21.59;60.70
15405;BME280;7801;48.124;11.590;2023-06-26T06:28:08;95493.72;;;21.73;59.45
15405;BME280;7801;48.124;11.590;2023-06-26T06:30:34;95501.28;;;21.87;58.43
15405;BME280;7801;48.124;11.590;2023-06-26T06:33:01;95494.59;;;22.00;57.81
15405;BME280;7801;48.124;11.590;2023-06-26T06:35:27;95494.63;;;22.04;57.33
15405;BME280;7801;48.124;11.590;2023-06-26T06:37:54;95498.28;;;22.15;56.66
15405;BME280;7801;48.124;11.590;2023-06-26T06:40:19;95495.34;;;22.23;56.30
15405;BME280;7801;48.124;11.590;2023-06-26T06:42:48;95500.78;;;22.27;56.56
15405;BME280;7801;48.124;11.590;2023-06-26T06:45:14;95500.19;;;22.37;55.92
15405;BME280;7801;48.124;11.590;2023-06-26T06:47:40;95501.72;;;22.38;55.56
15405;BME280;7801;48.124;11.590;2023-06-26T06:50:06;95494.03;;;22.40;55.47
15405;BME280;7801;48.124;11.590;2023-06-26T06:52:44;95506.50;;;22.48;55.18
15405;BME280;7801;48.124;11.590;2023-06-26T06:55:11;95499.13;;;22.45;54.29
15405;BME280;7801;48.124;11.590;2023-06-26T06:57:42;95501.09;;;22.48;54.94
15405;BME280;7801;48.124;11.590;2023-06-26T07:00:13;95498.13;;;22.57;54.42
15405;BME280;7801;48.124;11.590;2023-06-26T07:02:44;95495.00;;;22.55;54.36
15405;BME280;7801;48.124;11.590;2023-06-26T07:05:10;95496.56;;;22.56;53.71
15405;BME280;7801;48.124;11.590;2023-06-26T07:07:37;95495.06;;;22.58;53.61
15405;BME280;7801;48.124;11.590;2023-06-26T07:10:12;95495.91;;;22.62;53.34
15405;BME280;7801;48.124;11.590;2023-06-26T07:12:54;95498.31;;;22.71;53.31
15405;BME280;7801;48.124;11.590;2023-06-26T07:15:21;95489.56;;;22.78;53.08
15405;BME280;7801;48.124;11.590;2023-06-26T07:17:47;95486.16;;;22.84;52.96
15405;BME280;7801;48.124;11.590;2023-06-26T07:20:13;95490.81;;;22.84;52.85
15405;BME280;7801;48.124;11.590;2023-06-26T07:22:44;95490.81;;;22.87;52.16
15405;BME280;7801;48.124;11.590;2023-06-26T07:25:13;95488.53;;;22.89;52.71
15405;BME280;7801;48.124;11.590;2023-06-26T07:27:39;95490.13;;;22.94;52.46
15405;BME280;7801;48.124;11.590;2023-06-26T07:30:08;95491.59;;;22.88;52.76
15405;BME280;7801;48.124;11.590;2023-06-26T07:32:37;95483.22;;;22.96;52.62
15405;BME280;7801;48.124;11.590;2023-06-26T07:35:06;95482.81;;;22.94;52.86
15405;BME280;7801;48.124;11.590;2023-06-26T07:37:33;95488.63;;;22.96;53.22
15405;BME280;7801;48.124;11.590;2023-06-26T07:40:00;95491.84;;;23.06;52.91
15405;BME280;7801;48.124;11.590;2023-06-26T07:42:27;95485.72;;;23.12;53.22
15405;BME280;7801;48.124;11.590;2023-06-26T07:44:56;95489.25;;;23.16;53.11
15405;BME280;7801;48.124;11.590;2023-06-26T07:47:23;95494.63;;;23.13;53.52
15405;BME280;7801;48.124;11.590;2023-06-26T07:49:54;95485.66;;;23.05;53.95
15405;BME280;7801;48.124;11.590;2023-06-26T07:52:19;95489.44;;;23.01;54.07
15405;BME280;7801;48.124;11.590;2023-06-26T07:54:45;95487.94;;;23.03;53.75
15405;BME280;7801;48.124;11.590;2023-06-26T07:57:12;95489.50;;;23.04;53.93
15405;BME280;7801;48.124;11.590;2023-06-26T07:59:38;95485.72;;;23.12;53.88
15405;BME280;7801;48.124;11.590;2023-06-26T08:02:04;95495.72;;;23.08;54.19
15405;BME280;7801;48.124;11.590;2023-06-26T08:04:30;95484.97;;;23.15;53.95
15405;BME280;7801;48.124;11.590;2023-06-26T08:07:03;95482.00;;;23.24;53.90
15405;BME280;7801;48.124;11.590;2023-06-26T08:09:34;95479.72;;;23.29;53.80
15405;BME280;7801;48.124;11.590;2023-06-26T08:12:01;95485.56;;;23.35;53.72
15405;BME280;7801;48.124;11.590;2023-06-26T08:14:28;95482.34;;;23.22;54.00
15405;BME280;7801;48.124;11.590;2023-06-26T08:16:57;95479.13;;;23.47;52.91
15405;BME280;7801;48.124;11.590;2023-06-26T08:19:23;95475.28;;;23.51;53.33
15405;BME280;7801;48.124;11.590;2023-06-26T08:21:48;95481.56;;;23.55;52.93
15405;BME280;7801;48.124;11.590;2023-06-26T08:24:14;95478.28;;;23.39;53.66
15405;BME280;7801;48.124;11.590;2023-06-26T08:26:45;95490.84;;;23.54;53.19
15405;BME280;7801;48.124;11.590;2023-06-26T08:29:11;95482.94;;;23.42;53.87
15405;BME280;7801;48.124;11.590;2023-06-26T08:31:37;95482.53;;;23.40;53.76
15405;BME280;7801;48.124;11.590;2023-06-26T08:34:07;95475.97;;;23.41;53.95
15405;BME280;7801;48.124;11.590;2023-06-26T08:36:37;95485.34;;;23.51;53.82
15405;BME280;7801;48.124;11.590;2023-06-26T08:39:06;95486.94;;;23.52;53.83
15405;BME280;7801;48.124;11.590;2023-06-26T08:41:39;95473.69;;;23.43;54.32
15405;BME280;7801;48.124;11.590;2023-06-26T08:44:10;95477.69;;;23.56;53.86
15405;BME280;7801;48.124;11.590;2023-06-26T08:46:38;95476.44;;;23.47;54.09
15405;BME280;7801;48.124;11.590;2023-06-26T08:52:41;95473.03;;;23.53;53.46
15405;BME280;7801;48.124;11.590;2023-06-26T08:55:10;95477.41;;;23.65;53.61
15405;BME280;7801;48.124;11.590;2023-06-26T08:57:37;95473.13;;;23.64;53.36
15405;BME280;7801;48.124;11.590;2023-06-26T09:00:03;95474.06;;;23.82;51.56
15405;BME280;7801;48.124;11.590;2023-06-26T09:02:29;95466.28;;;23.77;52.64
15405;BME280;7801;48.124;11.590;2023-06-26T09:04:55;95469.31;;;23.72;53.42
15405;BME280;7801;48.124;11.590;2023-06-26T09:07:24;95463.53;;;23.74;53.24
15405;BME280;7801;48.124;11.590;2023-06-26T09:09:52;95468.72;;;23.89;52.28
15405;BME280;7801;48.124;11.590;2023-06-26T09:12:23;95458.19;;;24.32;49.55
15405;BME280;7801;48.124;11.590;2023-06-26T09:15:01;95459.03;;;24.43;50.08
15405;BME280;7801;48.124;11.590;2023-06-26T09:17:33;95459.06;;;24.47;49.82
15405;BME280;7801;48.124;11.590;2023-06-26T09:20:05;95454.53;;;24.14;51.72
15405;BME280;7801;48.124;11.590;2023-06-26T09:22:36;95449.41;;;23.98;51.64
15405;BME280;7801;48.124;11.590;2023-06-26T09:25:05;95449.38;;;23.94;51.67
15405;BME280;7801;48.124;11.590;2023-06-26T09:27:32;95445.81;;;24.31;50.60
15405;BME280;7801;48.124;11.590;2023-06-26T09:30:01;95447.62;;;24.20;51.29
15405;BME280;7801;48.124;11.590;2023-06-26T09:32:28;95440.38;;;24.31;51.11
15405;BME280;7801;48.124;11.590;2023-06-26T09:34:57;95447.56;;;24.13;51.11
15405;BME280;7801;48.124;11.590;2023-06-26T09:37:24;95451.06;;;24.10;51.56
15405;BME280;7801;48.124;11.590;2023-06-26T09:39:50;95446.59;;;24.31;50.74
15405;BME280;7801;48.124;11.590;2023-06-26T09:42:22;95445.13;;;23.97;52.08
15405;BME280;7801;48.124;11.590;2023-06-26T09:44:48;95436.47;;;24.25;49.79
15405;BME280;7801;48.124;11.590;2023-06-26T09:47:23;95440.50;;;24.56;50.28
15405;BME280;7801;48.124;11.590;2023-06-26T09:49:50;95436.53;;;24.39;50.68
15405;BME280;7801;48.124;11.590;2023-06-26T09:52:19;95433.84;;;24.43;50.36
15405;BME280;7801;48.124;11.590;2023-06-26T09:54:51;95439.19;;;24.28;49.01
15405;BME280;7801;48.124;11.590;2023-06-26T09:57:38;95434.72;;;24.03;51.23
15405;BME280;7801;48.124;11.590;2023-06-26T10:00:03;95425.47;;;24.07;51.05
15405;BME280;7801;48.124;11.590;2023-06-26T10:02:30;95423.53;;;24.11;50.56
15405;BME280;7801;48.124;11.590;2023-06-26T10:04:59;95428.78;;;24.38;49.70
15405;BME280;7801;48.124;11.590;2023-06-26T10:07:31;95427.22;;;24.37;49.46
15405;BME280;7801;48.124;11.590;2023-06-26T10:10:02;95425.63;;;24.32;49.07
15405;BME280;7801;48.124;11.590;2023-06-26T10:12:31;95416.75;;;24.35;48.89
15405;BME280;7801;48.124;11.590;2023-06-26T10:14:58;95423.81;;;24.47;47.28
15405;BME280;7801;48.124;11.590;2023-06-26T10:17:31;95409.50;;;24.57;47.24
15405;BME280;7801;48.124;11.590;2023-06-26T10:20:02;95417.38;;;24.87;45.40
15405;BME280;7801;48.124;11.590;2023-06-26T10:22:33;95413.50;;;24.88;46.73
15405;BME280;7801;48.124;11.590;2023-06-26T10:25:06;95413.78;;;24.61;47.40
15405;BME280;7801;48.124;11.590;2023-06-26T10:27:39;95420.25;;;24.39;47.80
15405;BME280;7801;48.124;11.590;2023-06-26T10:30:12;95421.00;;;24.29;48.00
15405;BME280;7801;48.124;11.590;2023-06-26T10:32:40;95418.56;;;24.20;48.26
15405;BME280;7801;48.124;11.590;2023-06-26T10:35:13;95411.69;;;24.33;47.24
15405;BME280;7801;48.124;11.590;2023-06-26T10:38:01;95404.75;;;24.36;47.30
15405;BME280;7801;48.124;11.590;2023-06-26T10:40:39;95409.50;;;24.60;45.70
15405;BME280;7801;48.124;11.590;2023-06-26T10:43:07;95403.69;;;24.51;46.82
15405;BME280;7801;48.124;11.590;2023-06-26T10:48:18;95411.81;;;24.58;45.20
15405;BME280;7801;48.124;11.590;2023-06-26T10:50:49;95406.31;;;24.41;46.95
15405;BME280;7801;48.124;11.590;2023-06-26T10:53:24;95403.66;;;24.48;47.11
15405;BME280;7801;48.124;11.590;2023-06-26T10:55:56;95408.41;;;24.72;46.25
15405;BME280;7801;48.124;11.590;2023-06-26T11:01:20;95395.53;;;24.51;46.66
15405;BME280;7801;48.124;11.590;2023-06-26T11:04:06;95400.34;;;24.93;43.44
15405;BME280;7801;48.124;11.590;2023-06-26T11:06:34;95401.78;;;24.62;46.17
15405;BME280;7801;48.124;11.590;2023-06-26T11:09:09;95398.69;;;24.64;45.46
15405;BME280;7801;48.124;11.590;2023-06-26T11:11:56;95396.03;;;24.82;45.26
15405;BME280;7801;48.124;11.590;2023-06-26T11:14:31;95404.03;;;24.53;46.22
15405;BME280;7801;48.124;11.590;2023-06-26T11:16:59;95406.09;;;24.78;45.69
15405;BME280;7801;48.124;11.590;2023-06-26T11:19:26;95395.53;;;24.55;46.38
15405;BME280;7801;48.124;11.590;2023-06-26T11:21:52;95395.63;;;24.76;46.09
15405;BME280;7801;48.124;11.590;2023-06-26T11:24:19;95394.94;;;24.97;45.67
15405;BME280;7801;48.124;11.590;2023-06-26T11:26:46;95393.78;;;24.98;45.72
15405;BME280;7801;48.124;11.590;2023-06-26T11:29:13;95398.88;;;25.24;44.89
15405;BME280;7801;48.124;11.590;2023-06-26T11:31:41;95392.91;;;24.73;46.29
15405;BME280;7801;48.124;11.590;2023-06-26T11:34:10;95395.31;;;24.92;45.57
15405;BME280;7801;48.124;11.590;2023-06-26T11:36:41;95394.16;;;25.00;44.98
15405;BME280;7801;48.124;11.590;2023-06-26T11:39:11;95393.34;;;24.89;45.56
15405;BME280;7801;48.124;11.590;2023-06-26T11:41:39;95383.25;;;24.89;45.05
15405;BME280;7801;48.124;11.590;2023-06-26T11:44:10;95388.00;;;25.07;45.11
15405;BME280;7801;48.124;11.590;2023-06-26T11:46:38;95393.81;;;25.05;45.52
15405;BME280;7801;48.124;11.590;2023-06-26T11:49:06;95385.69;;;25.23;44.73
15405;BME280;7801;48.124;11.590;2023-06-26T11:51:33;95398.53;;;25.47;44.46
15405;BME280;7801;48.124;11.590;2023-06-26T11:54:04;95401.66;;;25.63;44.36
15405;BME280;7801;48.124;11.590;2023-06-26T11:56:31;95393.12;;;25.68;44.20
15405;BME280;7801;48.124;11.590;2023-06-26T11:59:09;95385.75;;;25.83;44.08
15405;BME280;7801;48.124;11.590;2023-06-26T12:01:44;95377.97;;;25.92;44.60
15405;BME280;7801;48.124;11.590;2023-06-26T12:04:19;95372.91;;;25.98;44.26
15405;BME280;7801;48.124;11.590;2023-06-26T12:06:49;95379.09;;;26.13;44.09
15405;BME280;7801;48.124;11.590;2023-06-26T12:09:17;95382.22;;;26.11;43.98
15405;BME280;7801;48.124;11.590;2023-06-26T12:11:48;95382.59;;;26.13;42.23
15405;BME280;7801;48.124;11.590;2023-06-26T12:14:25;95377.13;;;26.24;40.49
15405;BME280;7801;48.124;11.590;2023-06-26T12:16:55;95379.47;;;26.22;41.61
15405;BME280;7801;48.124;11.590;2023-06-26T12:19:29;95381.03;;;26.37;41.44
15405;BME280;7801;48.124;11.590;2023-06-26T12:21:59;95380.22;;;26.40;41.05
15405;BME280;7801;48.124;11.590;2023-06-26T12:24:36;95375.50;;;26.58;40.69
15405;BME280;7801;48.124;11.590;2023-06-26T12:27:07;95374.34;;;26.59;41.14
15405;BME280;7801;48.124;11.590;2023-06-26T12:29:34;95365.44;;;26.45;41.38
15405;BME280;7801;48.124;11.590;2023-06-26T12:32:02;95384.13;;;26.39;42.16
15405;BME280;7801;48.124;11.590;2023-06-26T12:34:35;95384.47;;;26.45;42.51
15405;BME280;7801;48.124;11.590;2023-06-26T12:37:06;95377.91;;;26.39;42.84
15405;BME280;7801;48.124;11.590;2023-06-26T12:39:54;95366.19;;;26.45;43.11
15405;BME280;7801;48.124;11.590;2023-06-26T12:42:32;95377.84;;;26.53;42.16
15405;BME280;7801;48.124;11.590;2023-06-26T12:45:11;95375.84;;;26.60;42.09
15405;BME280;7801;48.124;11.590;2023-06-26T12:47:40;95375.13;;;26.56;42.43
15405;BME280;7801;48.124;11.590;2023-06-26T12:50:09;95377.44;;;26.58;42.23
15405;BME280;7801;48.124;11.590;2023-06-26T12:52:36;95367.69;;;26.64;42.09
15405;BME280;7801;48.124;11.590;2023-06-26T12:55:06;95373.13;;;26.67;41.69
15405;BME280;7801;48.124;11.590;2023-06-26T12:57:36;95366.09;;;26.70;41.33
15405;BME280;7801;48.124;11.590;2023-06-26T13:00:04;95366.91;;;26.63;41.66
15405;BME280;7801;48.124;11.590;2023-06-26T13:02:43;95357.56;;;26.64;41.71
15405;BME280;7801;48.124;11.590;2023-06-26T13:05:09;95354.47;;;26.66;40.47
15405;BME280;7801;48.124;11.590;2023-06-26T13:07:38;95361.44;;;26.70;40.31
15405;BME280;7801;48.124;11.590;2023-06-26T13:10:05;95363.84;;;26.54;41.88
15405;BME280;7801;48.124;11.590;2023-06-26T13:12:32;95342.88;;;26.48;42.36
15405;BME280;7801;48.124;11.590;2023-06-26T13:15:01;95353.84;;;26.01;43.63
15405;BME280;7801;48.124;11.590;2023-06-26T13:17:28;95356.59;;;25.45;45.36
15405;BME280;7801;48.124;11.590;2023-06-26T13:19:54;95355.06;;;25.29;45.17
15405;BME280;7801;48.124;11.590;2023-06-26T13:22:21;95346.91;;;25.90;42.39
15405;BME280;7801;48.124;11.590;2023-06-26T13:24:46;95346.88;;;26.00;43.57
15405;BME280;7801;48.124;11.590;2023-06-26T13:27:13;95348.06;;;25.60;44.14
15405;BME280;7801;48.124;11.590;2023-06-26T13:29:40;95341.06;;;25.42;44.86